createdAt,value
2018-04-26T00:02:10.861Z,0.40
2018-04-26T00:04:38.435Z,1.43
2018-04-26T00:07:06.030Z,0.80
2018-04-26T00:09:33.591Z,0.30
2018-04-26T00:12:01.172Z,0.40
2018-04-26T00:14:29.212Z,0.80
2018-04-26T00:16:56.887Z,1.50
2018-04-26T00:19:24.416Z,1.20
2018-04-26T00:21:52.148Z,1.23
2018-04-26T00:24:19.731Z,1.30
2018-04-26T00:26:47.295Z,0.77
2018-04-26T00:29:31.938Z,1.10
2018-04-26T00:31:59.524Z,0.83
2018-04-26T00:34:27.137Z,0.63
2018-04-26T00:36:54.705Z,0.80
2018-04-26T00:39:22.250Z,0.80
2018-04-26T00:41:50.267Z,1.03
2018-04-26T00:44:17.907Z,0.77
2018-04-26T00:46:45.496Z,1.30
2018-04-26T00:49:13.079Z,1.00
2018-04-26T00:51:53.095Z,0.80
2018-04-26T00:54:20.714Z,0.70
2018-04-26T00:56:48.300Z,0.73
2018-04-26T00:59:15.869Z,0.40
2018-04-26T01:01:43.438Z,0.53
2018-04-26T01:04:10.995Z,0.50
2018-04-26T01:06:38.527Z,0.30
2018-04-26T01:09:06.073Z,0.40
2018-04-26T01:11:33.688Z,0.53
2018-04-26T01:14:01.242Z,0.60
2018-04-26T01:16:28.827Z,0.83
2018-04-26T01:18:56.402Z,0.60
2018-04-26T01:21:24.466Z,0.60
2018-04-26T01:23:52.019Z,0.90
2018-04-26T01:26:19.586Z,0.40
2018-04-26T01:28:47.505Z,0.70
2018-04-26T01:31:15.101Z,0.33
2018-04-26T01:33:43.083Z,0.50
2018-04-26T01:36:27.822Z,1.00
2018-04-26T01:38:55.776Z,0.43
2018-04-26T01:41:23.355Z,0.60
2018-04-26T01:43:51.497Z,0.40
2018-04-26T01:46:19.099Z,0.30
2018-04-26T01:48:47.120Z,1.00
2018-04-26T01:51:14.718Z,0.53
2018-04-26T01:53:43.598Z,0.33
2018-04-26T01:56:14.292Z,0.60
2018-04-26T01:58:41.860Z,0.50
2018-04-26T02:01:09.455Z,0.40
2018-04-26T02:03:37.486Z,0.40
2018-04-26T02:06:05.089Z,0.47
2018-04-26T02:08:33.084Z,0.53
2018-04-26T02:11:00.571Z,0.70
2018-04-26T02:13:28.046Z,0.97
2018-04-26T02:15:55.577Z,0.43
2018-04-26T02:18:23.664Z,0.40
2018-04-26T02:20:51.258Z,0.60
2018-04-26T02:23:18.757Z,0.63
2018-04-26T02:25:46.236Z,0.30
2018-04-26T02:28:13.719Z,0.30
2018-04-26T02:30:41.230Z,0.30
2018-04-26T02:33:08.747Z,0.63
2018-04-26T02:35:36.234Z,0.27
2018-04-26T02:38:03.751Z,0.30
2018-04-26T02:40:31.248Z,0.30
2018-04-26T02:42:58.729Z,0.93
2018-04-26T02:45:26.236Z,0.50
2018-04-26T02:47:54.153Z,0.30
2018-04-26T02:50:21.646Z,0.90
2018-04-26T02:52:49.164Z,0.90
2018-04-26T02:55:16.675Z,1.17
2018-04-26T02:57:44.179Z,0.80
2018-04-26T03:00:11.666Z,0.43
2018-04-26T03:02:39.172Z,0.50
2018-04-26T03:05:06.676Z,0.30
2018-04-26T03:07:34.176Z,0.40
2018-04-26T03:10:02.082Z,0.40
2018-04-26T03:12:29.592Z,0.60
2018-04-26T03:14:57.471Z,0.30
2018-04-26T03:17:25.349Z,0.30
2018-04-26T03:19:52.862Z,0.37
2018-04-26T03:22:20.366Z,0.60
2018-04-26T03:24:47.899Z,0.70
2018-04-26T03:27:15.793Z,0.40
2018-04-26T03:29:43.314Z,0.60
2018-04-26T03:32:10.850Z,0.20
2018-04-26T03:34:38.342Z,0.40
2018-04-26T03:37:06.272Z,0.30
2018-04-26T03:39:33.782Z,0.33
2018-04-26T03:42:01.288Z,0.33
2018-04-26T03:44:28.770Z,0.30
2018-04-26T03:46:56.261Z,0.43
2018-04-26T03:49:26.821Z,0.50
2018-04-26T03:51:54.345Z,0.40
2018-04-26T03:54:21.848Z,0.30
2018-04-26T03:56:49.350Z,0.50
2018-04-26T03:59:16.849Z,0.37
2018-04-26T04:01:56.172Z,0.20
2018-04-26T04:04:35.645Z,0.20
2018-04-26T04:07:03.140Z,0.30
2018-04-26T04:09:30.642Z,0.33
2018-04-26T04:11:58.159Z,0.20
2018-04-26T04:14:25.715Z,0.30
2018-04-26T04:16:53.601Z,0.37
2018-04-26T04:19:21.096Z,0.30
2018-04-26T04:21:48.595Z,0.30
2018-04-26T04:24:16.076Z,0.30
2018-04-26T04:26:43.572Z,0.40
2018-04-26T04:29:11.054Z,0.30
2018-04-26T04:31:38.951Z,0.70
2018-04-26T04:34:06.439Z,0.40
2018-04-26T04:36:33.936Z,0.33
2018-04-26T04:39:01.833Z,0.30
2018-04-26T04:41:29.306Z,0.50
2018-04-26T04:43:56.811Z,0.37
2018-04-26T04:46:24.715Z,0.20
2018-04-26T04:48:52.230Z,0.30
2018-04-26T04:51:20.125Z,0.43
2018-04-26T04:53:47.609Z,0.30
2018-04-26T04:56:15.124Z,0.50
2018-04-26T04:58:42.627Z,0.30
2018-04-26T05:01:10.142Z,0.40
2018-04-26T05:03:37.640Z,0.57
2018-04-26T05:06:05.129Z,0.70
2018-04-26T05:08:32.620Z,0.30
2018-04-26T05:11:00.133Z,0.20
2018-04-26T05:13:27.609Z,0.20
2018-04-26T05:15:55.503Z,0.30
2018-04-26T05:18:23.007Z,0.30
2018-04-26T05:20:50.486Z,0.30
2018-04-26T05:23:17.977Z,0.40
2018-04-26T05:25:45.488Z,0.30
2018-04-26T05:28:12.967Z,0.30
2018-04-26T05:30:40.868Z,0.30
2018-04-26T05:33:08.363Z,0.30
2018-04-26T05:35:35.852Z,0.50
2018-04-26T05:38:03.790Z,0.33
2018-04-26T05:40:31.396Z,0.20
2018-04-26T05:42:59.697Z,0.30
2018-04-26T05:45:27.192Z,0.40
2018-04-26T05:47:54.707Z,0.30
2018-04-26T05:50:22.206Z,0.27
2018-04-26T05:52:49.771Z,0.30
2018-04-26T05:55:17.210Z,0.43
2018-04-26T05:57:44.715Z,0.30
2018-04-26T06:00:12.225Z,0.50
2018-04-26T06:02:39.739Z,0.30
2018-04-26T06:05:07.613Z,0.37
2018-04-26T06:07:35.104Z,0.50
2018-04-26T06:10:02.617Z,0.30
2018-04-26T06:12:30.144Z,0.30
2018-04-26T06:14:58.031Z,0.40
2018-04-26T06:17:25.537Z,0.40
2018-04-26T06:19:53.028Z,0.40
2018-04-26T06:22:20.902Z,0.40
2018-04-26T06:24:48.799Z,0.50
2018-04-26T06:27:16.304Z,0.40
2018-04-26T06:29:43.797Z,0.53
2018-04-26T06:32:11.333Z,0.63
2018-04-26T06:34:39.225Z,0.20
2018-04-26T06:37:06.713Z,0.40
2018-04-26T06:39:34.199Z,0.30
2018-04-26T06:42:01.676Z,0.50
2018-04-26T06:44:29.636Z,0.30
2018-04-26T06:46:57.525Z,0.40
2018-04-26T06:49:25.041Z,0.30
2018-04-26T06:51:52.517Z,0.30
2018-04-26T06:54:20.416Z,0.20
2018-04-26T06:56:47.916Z,0.50
2018-04-26T06:59:15.419Z,1.40
2018-04-26T07:01:42.913Z,0.40
2018-04-26T07:04:10.400Z,0.40
2018-04-26T07:06:37.913Z,0.30
2018-04-26T07:09:05.418Z,0.40
2018-04-26T07:11:32.935Z,0.90
2018-04-26T07:14:00.445Z,0.70
2018-04-26T07:16:28.346Z,0.40
2018-04-26T07:18:55.848Z,0.30
2018-04-26T07:21:23.354Z,0.53
2018-04-26T07:23:50.829Z,0.50
2018-04-26T07:26:18.329Z,0.53
2018-04-26T07:28:45.818Z,0.40
2018-04-26T07:31:13.328Z,0.47
2018-04-26T07:33:40.826Z,0.20
2018-04-26T07:36:08.331Z,0.30
2018-04-26T07:38:35.839Z,0.40
2018-04-26T07:41:03.744Z,0.40
2018-04-26T07:43:31.248Z,0.43
2018-04-26T07:45:58.746Z,0.30
2018-04-26T07:48:26.231Z,0.60
2018-04-26T07:50:53.742Z,0.80
2018-04-26T07:53:21.232Z,0.50
2018-04-26T07:55:48.737Z,0.60
2018-04-26T07:58:16.643Z,0.30
2018-04-26T08:00:44.113Z,0.30
2018-04-26T08:03:11.636Z,0.70
2018-04-26T08:05:39.145Z,0.30
2018-04-26T08:08:06.661Z,0.20
2018-04-26T08:10:34.250Z,0.70
2018-04-26T08:13:01.761Z,0.80
2018-04-26T08:15:29.295Z,0.63
2018-04-26T08:17:56.824Z,0.30
2018-04-26T08:20:24.323Z,0.20
2018-04-26T08:22:52.225Z,0.60
2018-04-26T08:25:19.739Z,0.50
2018-04-26T08:27:47.261Z,0.20
2018-04-26T08:30:14.765Z,0.40
2018-04-26T08:32:42.660Z,0.40
2018-04-26T08:35:10.168Z,0.30
2018-04-26T08:37:37.701Z,0.43
2018-04-26T08:40:05.227Z,0.40
2018-04-26T08:42:32.717Z,0.50
2018-04-26T08:45:00.256Z,0.23
2018-04-26T08:47:27.749Z,0.60
2018-04-26T08:49:55.269Z,0.47
2018-04-26T08:52:22.870Z,0.73
2018-04-26T08:54:50.295Z,0.40
2018-04-26T08:57:17.803Z,0.47
2018-04-26T08:59:45.719Z,0.50
2018-04-26T09:02:13.232Z,0.30
2018-04-26T09:04:40.718Z,0.30
2018-04-26T09:07:08.210Z,0.33
2018-04-26T09:09:35.710Z,0.20
2018-04-26T09:12:03.587Z,0.40
2018-04-26T09:14:31.493Z,0.70
2018-04-26T09:16:58.999Z,0.40
2018-04-26T09:19:26.920Z,0.30
2018-04-26T09:21:54.471Z,0.30
2018-04-26T09:24:21.969Z,0.27
2018-04-26T09:26:49.494Z,0.30
2018-04-26T09:29:16.969Z,0.40
2018-04-26T09:31:44.471Z,0.20
2018-04-26T09:34:12.074Z,0.20
2018-04-26T09:36:39.568Z,0.27
2018-04-26T09:39:07.459Z,0.77
2018-04-26T09:41:34.989Z,0.40
2018-04-26T09:44:02.882Z,0.50
2018-04-26T09:46:30.382Z,0.30
2018-04-26T09:48:57.873Z,0.30
2018-04-26T09:51:25.391Z,0.40
2018-04-26T09:53:52.904Z,0.30
2018-04-26T09:56:20.412Z,0.33
2018-04-26T09:58:47.925Z,0.27
2018-04-26T10:01:20.200Z,0.63
2018-04-26T10:03:47.727Z,0.30
2018-04-26T10:06:31.049Z,0.20
2018-04-26T10:08:58.543Z,0.30
2018-04-26T10:11:26.060Z,0.40
2018-04-26T10:13:53.968Z,0.30
2018-04-26T10:16:21.493Z,0.30
2018-04-26T10:18:49.384Z,0.20
2018-04-26T10:21:16.882Z,0.30
2018-04-26T10:23:44.400Z,0.40
2018-04-26T10:26:11.929Z,0.20
2018-04-26T10:28:39.418Z,0.33
2018-04-26T10:31:06.961Z,0.20
2018-04-26T10:33:34.868Z,0.20
2018-04-26T10:36:02.388Z,0.33
2018-04-26T10:38:30.786Z,0.57
2018-04-26T10:40:58.293Z,0.30
2018-04-26T10:43:25.838Z,0.30
2018-04-26T10:45:53.338Z,0.20
2018-04-26T10:48:21.229Z,0.27
2018-04-26T10:50:48.760Z,0.50
2018-04-26T10:53:16.254Z,0.40
2018-04-26T10:55:43.752Z,0.57
2018-04-26T10:58:11.680Z,0.20
2018-04-26T11:00:40.783Z,0.30
2018-04-26T11:03:08.416Z,0.60
2018-04-26T11:05:35.914Z,0.30
2018-04-26T11:08:03.420Z,0.20
2018-04-26T11:10:30.901Z,0.47
2018-04-26T11:12:58.984Z,0.30
2018-04-26T11:15:26.562Z,0.57
2018-04-26T11:17:53.989Z,0.30
2018-04-26T11:20:21.508Z,0.60
2018-04-26T11:22:49.389Z,0.30
2018-04-26T11:25:16.903Z,0.30
2018-04-26T11:27:44.418Z,0.50
2018-04-26T11:30:11.906Z,0.40
2018-04-26T11:32:39.406Z,1.57
2018-04-26T11:35:07.353Z,0.20
2018-04-26T11:37:34.862Z,0.20
2018-04-26T11:40:02.367Z,0.30
2018-04-26T11:42:30.353Z,0.20
2018-04-26T11:44:58.225Z,0.27
2018-04-26T11:47:26.121Z,0.37
2018-04-26T11:49:53.636Z,0.33
2018-04-26T11:52:21.198Z,0.37
2018-04-26T11:54:48.639Z,0.40
2018-04-26T11:57:16.133Z,0.30
2018-04-26T11:59:43.618Z,0.57
2018-04-26T12:02:11.190Z,0.20
2018-04-26T12:04:39.038Z,0.20
2018-04-26T12:07:06.526Z,0.20
2018-04-26T12:09:34.024Z,0.27
2018-04-26T12:12:01.536Z,0.20
2018-04-26T12:14:29.032Z,0.20
2018-04-26T12:16:56.540Z,0.20
2018-04-26T12:19:24.030Z,0.30
2018-04-26T12:21:51.540Z,0.30
2018-04-26T12:24:19.014Z,0.60
2018-04-26T12:26:46.509Z,0.40
2018-04-26T12:29:14.409Z,0.40
2018-04-26T12:31:41.980Z,0.30
2018-04-26T12:34:09.482Z,0.30
2018-04-26T12:36:36.984Z,0.20
2018-04-26T12:39:04.480Z,0.20
2018-04-26T12:41:31.988Z,0.27
2018-04-26T12:43:59.469Z,0.30
2018-04-26T12:46:27.016Z,0.37
2018-04-26T12:48:54.528Z,0.23
2018-04-26T12:51:22.014Z,0.23
2018-04-26T12:53:49.533Z,0.33
2018-04-26T12:56:17.041Z,0.40
2018-04-26T12:58:44.542Z,0.83
2018-04-26T13:01:12.048Z,0.30
2018-04-26T13:03:43.764Z,0.40
2018-04-26T13:06:11.328Z,0.60
2018-04-26T13:08:38.874Z,0.30
2018-04-26T13:11:06.398Z,0.20
2018-04-26T13:13:33.896Z,0.40
2018-04-26T13:16:01.443Z,0.20
2018-04-26T13:18:28.959Z,0.30
2018-04-26T13:20:56.457Z,0.33
2018-04-26T13:23:24.053Z,0.47
2018-04-26T13:25:51.478Z,0.40
2018-04-26T13:28:18.984Z,0.40
2018-04-26T13:30:46.501Z,0.20
2018-04-26T13:33:14.005Z,0.30
2018-04-26T13:35:41.814Z,0.30
2018-04-26T13:38:09.310Z,0.30
2018-04-26T13:40:36.812Z,0.30
2018-04-26T13:43:04.327Z,0.30
2018-04-26T13:45:31.852Z,0.30
2018-04-26T13:47:59.359Z,0.20
2018-04-26T13:50:26.860Z,0.40
2018-04-26T13:52:54.354Z,0.50
2018-04-26T13:55:22.234Z,0.20
2018-04-26T13:57:49.735Z,0.20
2018-04-26T14:00:17.235Z,0.20
2018-04-26T14:02:45.222Z,0.20
2018-04-26T14:05:12.713Z,0.20
2018-04-26T14:07:40.206Z,0.20
2018-04-26T14:10:08.105Z,0.63
2018-04-26T14:12:35.599Z,0.20
2018-04-26T14:15:03.140Z,0.30
2018-04-26T14:17:30.743Z,0.20
2018-04-26T14:19:58.219Z,0.50
2018-04-26T14:22:25.751Z,0.40
2018-04-26T14:24:53.653Z,0.30
2018-04-26T14:27:21.166Z,0.63
2018-04-26T14:29:48.720Z,0.40
2018-04-26T14:32:16.237Z,0.20
2018-04-26T14:34:43.784Z,0.20
2018-04-26T14:37:11.394Z,0.40
2018-04-26T14:39:38.808Z,0.30
2018-04-26T14:42:06.305Z,0.17
2018-04-26T14:44:33.807Z,0.40
2018-04-26T14:47:01.314Z,0.40
2018-04-26T14:49:28.806Z,0.57
2018-04-26T14:51:56.723Z,0.30
2018-04-26T14:54:24.217Z,0.20
2018-04-26T14:56:51.741Z,0.30
2018-04-26T14:59:19.267Z,0.70
2018-04-26T15:01:46.751Z,0.47
2018-04-26T15:04:14.281Z,0.63
2018-04-26T15:06:42.740Z,0.30
2018-04-26T15:09:10.239Z,0.50
2018-04-26T15:11:39.017Z,0.47
2018-04-26T15:14:07.817Z,0.53
2018-04-26T15:16:37.013Z,0.70
2018-04-26T15:19:04.668Z,0.83
2018-04-26T15:21:34.734Z,0.30
2018-04-26T15:24:02.270Z,0.30
2018-04-26T15:26:29.801Z,0.30
2018-04-26T15:28:57.302Z,0.60
2018-04-26T15:31:24.830Z,0.27
2018-04-26T15:33:52.355Z,0.83
2018-04-26T15:36:20.422Z,0.40
2018-04-26T15:38:48.720Z,0.40
2018-04-26T15:41:19.206Z,0.20
2018-04-26T15:43:46.720Z,0.30
2018-04-26T15:46:14.598Z,0.30
2018-04-26T15:48:42.209Z,0.40
2018-04-26T15:51:09.707Z,0.50
2018-04-26T15:53:49.040Z,0.50
2018-04-26T15:59:30.637Z,0.47
2018-04-26T16:02:25.397Z,0.60
2018-04-26T16:05:10.831Z,0.67
2018-04-26T16:07:55.929Z,0.80
2018-04-26T16:10:42.486Z,0.97
2018-04-26T16:13:28.544Z,0.90
2018-04-26T16:16:14.039Z,0.60
2018-04-26T16:18:59.198Z,1.40
2018-04-26T16:21:38.519Z,0.80
2018-04-26T16:24:33.787Z,0.40
2018-04-26T16:27:18.819Z,0.40
2018-04-26T16:29:58.241Z,0.30
2018-04-26T16:32:37.509Z,0.50
2018-04-26T16:35:20.753Z,0.50
2018-04-26T16:38:06.005Z,0.47
2018-04-26T16:40:33.594Z,0.50
2018-04-26T16:43:01.208Z,0.77
2018-04-26T16:45:28.780Z,0.80
2018-04-26T16:47:56.490Z,0.83
2018-04-26T16:50:24.122Z,0.73
2018-04-26T16:52:51.766Z,0.50
2018-04-26T16:55:19.373Z,0.67
2018-04-26T16:57:47.017Z,0.33
2018-04-26T17:00:15.238Z,0.63
2018-04-26T17:02:42.901Z,0.60
2018-04-26T17:05:10.556Z,0.67
2018-04-26T17:07:38.171Z,0.87
2018-04-26T17:10:06.123Z,0.70
2018-04-26T17:12:33.780Z,0.53
2018-04-26T17:15:03.252Z,0.33
2018-04-26T17:17:30.844Z,0.53
2018-04-26T17:19:58.363Z,0.50
2018-04-26T17:22:25.874Z,0.40
2018-04-26T17:24:53.349Z,0.50
2018-04-26T17:27:20.865Z,0.50
2018-04-26T17:29:48.368Z,0.43
2018-04-26T17:32:15.928Z,0.63
2018-04-26T17:34:43.455Z,0.70
2018-04-26T17:37:10.953Z,0.43
2018-04-26T17:39:38.468Z,0.40
2018-04-26T17:42:06.001Z,0.60
2018-04-26T17:44:33.545Z,0.43
2018-04-26T17:47:01.071Z,0.50
2018-04-26T17:49:28.568Z,0.53
2018-04-26T17:51:56.869Z,0.47
2018-04-26T17:54:24.356Z,0.67
2018-04-26T17:56:51.873Z,1.00
2018-04-26T17:59:19.401Z,1.33
2018-04-26T18:01:46.899Z,0.60
2018-04-26T18:04:14.416Z,0.60
2018-04-26T18:06:42.324Z,1.30
2018-04-26T18:09:09.841Z,1.37
2018-04-26T18:11:37.725Z,0.60
2018-04-26T18:14:05.241Z,0.40
2018-04-26T18:16:32.754Z,0.60
2018-04-26T18:19:02.276Z,0.60
2018-04-26T18:21:29.834Z,0.73
2018-04-26T18:23:57.348Z,0.50
2018-04-26T18:26:24.889Z,0.50
2018-04-26T18:28:52.798Z,0.40
2018-04-26T18:31:20.299Z,0.50
2018-04-26T18:33:48.788Z,0.40
2018-04-26T18:36:17.277Z,0.80
2018-04-26T18:38:45.733Z,0.60
2018-04-26T18:41:13.248Z,0.50
2018-04-26T18:43:40.907Z,0.60
2018-04-26T18:46:08.408Z,0.53
2018-04-26T18:48:35.923Z,0.40
2018-04-26T18:51:04.792Z,0.50
2018-04-26T18:53:34.350Z,0.40
2018-04-26T18:56:01.922Z,0.70
2018-04-26T18:58:29.440Z,0.50
2018-04-26T19:01:11.161Z,1.23
2018-04-26T19:03:38.687Z,0.97
2018-04-26T19:06:06.352Z,0.90
2018-04-26T19:08:33.878Z,0.80
2018-04-26T19:11:08.122Z,0.77
2018-04-26T19:13:36.594Z,0.90
2018-04-26T19:16:04.700Z,1.13
2018-04-26T19:18:32.184Z,1.60
2018-04-26T19:20:59.773Z,2.47
2018-04-26T19:23:27.201Z,2.20
2018-04-26T19:25:54.720Z,1.63
2018-04-26T19:28:22.812Z,2.00
2018-04-26T19:30:50.316Z,1.73
2018-04-26T19:33:40.302Z,0.80
2018-04-26T19:36:08.806Z,1.50
2018-04-26T19:38:36.487Z,1.80
2018-04-26T19:41:04.096Z,1.50
2018-04-26T19:43:31.888Z,1.20
2018-04-26T19:45:59.520Z,2.20
2018-04-26T19:48:27.113Z,1.40
2018-04-26T19:50:54.768Z,1.70
2018-04-26T19:53:22.330Z,0.57
2018-04-26T19:55:49.889Z,0.80
2018-04-26T19:58:17.733Z,0.90
2018-04-26T20:00:48.384Z,1.17
2018-04-26T20:03:16.240Z,1.00
2018-04-26T20:05:43.911Z,1.10
2018-04-26T20:08:21.186Z,1.90
2018-04-26T20:10:49.720Z,1.00
2018-04-26T20:13:20.960Z,1.50
2018-04-26T20:15:53.862Z,1.60
2018-04-26T20:18:38.195Z,4.33
2018-04-26T20:24:03.555Z,1.80
2018-04-26T20:26:39.551Z,1.80
2018-04-26T20:38:12.896Z,1.87
2018-04-26T20:40:40.890Z,1.50
2018-04-26T20:49:08.997Z,3.43
2018-04-26T21:06:34.127Z,2.57
2018-04-26T21:09:03.057Z,2.10
2018-04-26T21:11:30.686Z,2.07
2018-04-26T21:13:58.754Z,2.30
2018-04-26T21:16:26.307Z,0.87
2018-04-26T21:18:54.446Z,0.70
2018-04-26T21:21:21.980Z,0.80
2018-04-26T21:23:49.540Z,1.07
2018-04-26T21:26:17.085Z,0.60
2018-04-26T21:28:44.720Z,0.73
2018-04-26T21:31:13.221Z,0.50
2018-04-26T21:33:40.742Z,0.67
2018-04-26T21:36:08.461Z,0.90
2018-04-26T21:38:36.013Z,0.93
2018-04-26T21:41:03.574Z,0.80
2018-04-26T21:43:31.169Z,1.03
2018-04-26T21:45:58.744Z,1.00
2018-04-26T21:48:26.282Z,1.00
2018-04-26T21:50:59.700Z,2.10
2018-04-26T21:53:32.908Z,2.20
2018-04-26T21:56:06.582Z,2.20
2018-04-26T21:58:39.813Z,2.13
2018-04-26T22:01:13.091Z,2.93
2018-04-26T22:03:41.558Z,3.40
2018-04-26T22:06:09.519Z,0.70
2018-04-26T22:08:37.559Z,1.00
2018-04-26T22:11:05.180Z,0.70
2018-04-26T22:13:35.071Z,1.40
2018-04-26T22:16:02.813Z,1.40
2018-04-26T22:18:51.752Z,1.73
2018-04-26T22:21:29.292Z,2.30
2018-04-26T22:24:07.205Z,2.13
2018-04-26T22:26:42.224Z,2.07
2018-04-26T22:29:10.684Z,1.10
2018-04-26T22:31:40.224Z,1.13
2018-04-26T22:34:08.320Z,1.33
2018-04-26T22:36:36.122Z,1.60
2018-04-26T22:39:03.788Z,1.30
2018-04-26T22:41:31.896Z,0.93
2018-04-26T22:43:59.527Z,0.83
2018-04-26T22:46:27.597Z,1.03
2018-04-26T22:48:55.263Z,0.93
2018-04-26T22:51:22.928Z,0.70
2018-04-26T22:53:50.619Z,0.90
2018-04-26T22:56:18.271Z,1.10
2018-04-26T22:58:45.944Z,0.70
2018-04-26T23:01:14.650Z,0.70
2018-04-26T23:03:42.267Z,1.00
2018-04-26T23:06:10.371Z,1.07
2018-04-26T23:08:38.020Z,0.60
2018-04-26T23:11:05.632Z,1.30
2018-04-26T23:13:33.694Z,1.07
2018-04-26T23:16:01.751Z,0.80
2018-04-26T23:18:29.434Z,0.90
2018-04-26T23:20:59.488Z,0.60
2018-04-26T23:23:27.145Z,0.40
2018-04-26T23:25:54.755Z,0.73
2018-04-26T23:28:22.393Z,0.50
2018-04-26T23:30:50.023Z,0.50
2018-04-26T23:33:17.693Z,0.60
2018-04-26T23:35:45.342Z,0.60
2018-04-26T23:38:13.041Z,0.80
2018-04-26T23:40:40.654Z,0.60
2018-04-26T23:43:08.682Z,1.10
2018-04-26T23:45:36.288Z,0.90
2018-04-26T23:48:03.929Z,0.80
2018-04-26T23:50:31.567Z,0.70
2018-04-26T23:52:59.230Z,0.57
2018-04-26T23:55:26.890Z,0.67
2018-04-26T23:57:54.512Z,0.40
